sensor_id;sensor_type;location;lat;lon;timestamp;pressure;altitude;pressure_sealevel;temperature;humidity
73624;BME280;61921;53.226;-1.296;2022-11-03T00:00:44;99172.79;;;12.03;78.92
73624;BME280;61921;53.226;-1.296;2022-11-03T00:03:09;99167.87;;;11.96;77.52
73624;BME280;61921;53.226;-1.296;2022-11-03T00:05:34;99171.19;;;11.97;76.52
73624;BME280;61921;53.226;-1.296;2022-11-03T00:08:01;99165.77;;;11.98;75.92
73624;BME280;61921;53.226;-1.296;2022-11-03T00:10:25;99171.24;;;11.96;75.22
73624;BME280;61921;53.226;-1.296;2022-11-03T00:12:52;99160.74;;;12.04;74.33
73624;BME280;61921;53.226;-1.296;2022-11-03T00:15:15;99164.29;;;12.03;73.89
73624;BME280;61921;53.226;-1.296;2022-11-03T00:17:40;99166.44;;;11.99;74.74
73624;BME280;61921;53.226;-1.296;2022-11-03T00:20:07;99169.85;;;11.96;74.21
73624;BME280;61921;53.226;-1.296;2022-11-03T00:22:31;99165.25;;;11.91;73.23
73624;BME280;61921;53.226;-1.296;2022-11-03T00:24:57;99158.81;;;11.93;72.63
73624;BME280;61921;53.226;-1.296;2022-11-03T00:27:22;99161.13;;;11.95;71.34
73624;BME280;61921;53.226;-1.296;2022-11-03T00:29:47;99166.32;;;11.92;71.61
73624;BME280;61921;53.226;-1.296;2022-11-03T00:32:13;99160.05;;;11.91;70.61
73624;BME280;61921;53.226;-1.296;2022-11-03T00:34:38;99162.14;;;11.88;71.38
73624;BME280;61921;53.226;-1.296;2022-11-03T00:37:04;99161.56;;;11.86;71.68
73624;BME280;61921;53.226;-1.296;2022-11-03T00:39:29;99159.85;;;11.81;71.35
73624;BME280;61921;53.226;-1.296;2022-11-03T00:41:54;99166.51;;;11.81;70.72
73624;BME280;61921;53.226;-1.296;2022-11-03T00:44:20;99157.43;;;11.74;70.82
73624;BME280;61921;53.226;-1.296;2022-11-03T00:46:45;99160.92;;;11.75;70.98
73624;BME280;61921;53.226;-1.296;2022-11-03T00:49:10;99162.91;;;11.83;71.06
73624;BME280;61921;53.226;-1.296;2022-11-03T00:51:36;99174.41;;;11.75;71.33
73624;BME280;61921;53.226;-1.296;2022-11-03T00:54:03;99167.96;;;11.70;71.14
73624;BME280;61921;53.226;-1.296;2022-11-03T00:56:28;99176.25;;;11.79;71.43
73624;BME280;61921;53.226;-1.296;2022-11-03T00:58:53;99173.87;;;11.77;69.75
73624;BME280;61921;53.226;-1.296;2022-11-03T01:01:18;99170.84;;;11.74;71.56
73624;BME280;61921;53.226;-1.296;2022-11-03T01:03:44;99180.16;;;11.71;70.58
73624;BME280;61921;53.226;-1.296;2022-11-03T01:06:10;99177.53;;;11.81;71.38
73624;BME280;61921;53.226;-1.296;2022-11-03T01:08:35;99177.01;;;11.70;70.59
73624;BME280;61921;53.226;-1.296;2022-11-03T01:11:04;99175.69;;;11.77;70.44
73624;BME280;61921;53.226;-1.296;2022-11-03T01:13:24;99174.92;;;11.76;71.29
73624;BME280;61921;53.226;-1.296;2022-11-03T01:15:49;99179.17;;;11.80;70.63
73624;BME280;61921;53.226;-1.296;2022-11-03T01:18:15;99177.77;;;11.70;70.47
73624;BME280;61921;53.226;-1.296;2022-11-03T01:20:40;99181.89;;;11.69;71.52
73624;BME280;61921;53.226;-1.296;2022-11-03T01:23:11;99178.53;;;11.68;70.83
73624;BME280;61921;53.226;-1.296;2022-11-03T01:25:31;99171.96;;;11.68;71.78
73624;BME280;61921;53.226;-1.296;2022-11-03T01:27:56;99161.28;;;11.55;72.43
73624;BME280;61921;53.226;-1.296;2022-11-03T01:30:21;99152.05;;;11.53;72.42
73624;BME280;61921;53.226;-1.296;2022-11-03T01:32:46;99149.88;;;11.65;72.35
73624;BME280;61921;53.226;-1.296;2022-11-03T01:35:13;99146.91;;;11.49;72.95
73624;BME280;61921;53.226;-1.296;2022-11-03T01:37:37;99148.27;;;11.44;73.10
73624;BME280;61921;53.226;-1.296;2022-11-03T01:40:04;99152.95;;;11.42;73.81
73624;BME280;61921;53.226;-1.296;2022-11-03T01:42:28;99145.47;;;11.45;73.92
73624;BME280;61921;53.226;-1.296;2022-11-03T01:44:53;99152.77;;;11.28;74.58
73624;BME280;61921;53.226;-1.296;2022-11-03T01:47:22;99143.01;;;11.17;75.34
73624;BME280;61921;53.226;-1.296;2022-11-03T01:49:46;99149.26;;;11.16;75.46
73624;BME280;61921;53.226;-1.296;2022-11-03T01:52:14;99141.90;;;11.14;76.17
73624;BME280;61921;53.226;-1.296;2022-11-03T01:54:36;99145.20;;;11.07;76.45
73624;BME280;61921;53.226;-1.296;2022-11-03T01:57:04;99148.01;;;10.98;76.77
73624;BME280;61921;53.226;-1.296;2022-11-03T01:59:26;99141.10;;;11.04;77.09
73624;BME280;61921;53.226;-1.296;2022-11-03T02:01:50;99143.71;;;10.97;77.72
73624;BME280;61921;53.226;-1.296;2022-11-03T02:04:18;99144.20;;;11.04;77.78
73624;BME280;61921;53.226;-1.296;2022-11-03T02:06:41;99145.09;;;11.09;78.01
73624;BME280;61921;53.226;-1.296;2022-11-03T02:09:07;99143.42;;;10.94;78.29
73624;BME280;61921;53.226;-1.296;2022-11-03T02:11:32;99144.42;;;10.98;78.67
73624;BME280;61921;53.226;-1.296;2022-11-03T02:13:58;99141.11;;;10.98;78.99
73624;BME280;61921;53.226;-1.296;2022-11-03T02:16:22;99152.04;;;10.98;78.66
73624;BME280;61921;53.226;-1.296;2022-11-03T02:18:48;99154.34;;;10.97;78.95
73624;BME280;61921;53.226;-1.296;2022-11-03T02:21:20;99149.01;;;11.06;79.04
73624;BME280;61921;53.226;-1.296;2022-11-03T02:23:41;99149.92;;;11.01;78.67
73624;BME280;61921;53.226;-1.296;2022-11-03T02:26:06;99156.05;;;10.98;78.73
73624;BME280;61921;53.226;-1.296;2022-11-03T02:28:30;99153.54;;;10.97;78.79
73624;BME280;61921;53.226;-1.296;2022-11-03T02:31:03;99157.82;;;10.88;78.84
73624;BME280;61921;53.226;-1.296;2022-11-03T02:33:30;99145.92;;;10.90;79.05
73624;BME280;61921;53.226;-1.296;2022-11-03T02:35:50;99138.97;;;10.86;79.08
73624;BME280;61921;53.226;-1.296;2022-11-03T02:38:13;99142.25;;;10.91;79.13
73624;BME280;61921;53.226;-1.296;2022-11-03T02:40:39;99141.21;;;10.94;78.75
73624;BME280;61921;53.226;-1.296;2022-11-03T02:43:02;99127.52;;;10.93;78.98
73624;BME280;61921;53.226;-1.296;2022-11-03T02:45:27;99124.53;;;10.94;78.66
73624;BME280;61921;53.226;-1.296;2022-11-03T02:47:54;99127.54;;;10.92;79.01
73624;BME280;61921;53.226;-1.296;2022-11-03T02:50:17;99127.47;;;10.98;78.71
73624;BME280;61921;53.226;-1.296;2022-11-03T02:52:44;99125.73;;;10.91;78.68
73624;BME280;61921;53.226;-1.296;2022-11-03T02:55:17;99127.35;;;10.85;78.83
73624;BME280;61921;53.226;-1.296;2022-11-03T02:57:36;99120.72;;;10.84;78.51
73624;BME280;61921;53.226;-1.296;2022-11-03T03:00:03;99119.42;;;10.85;78.55
73624;BME280;61921;53.226;-1.296;2022-11-03T03:02:31;99117.65;;;10.92;77.98
73624;BME280;61921;53.226;-1.296;2022-11-03T03:04:54;99111.98;;;10.87;78.38
73624;BME280;61921;53.226;-1.296;2022-11-03T03:07:17;99113.22;;;10.91;77.89
73624;BME280;61921;53.226;-1.296;2022-11-03T03:09:42;99106.29;;;10.91;77.91
73624;BME280;61921;53.226;-1.296;2022-11-03T03:12:05;99103.31;;;10.99;77.47
73624;BME280;61921;53.226;-1.296;2022-11-03T03:14:33;99110.95;;;11.04;77.54
73624;BME280;61921;53.226;-1.296;2022-11-03T03:16:59;99097.51;;;10.97;77.26
73624;BME280;61921;53.226;-1.296;2022-11-03T03:19:27;99091.84;;;11.01;77.50
73624;BME280;61921;53.226;-1.296;2022-11-03T03:21:49;99093.01;;;10.95;77.68
73624;BME280;61921;53.226;-1.296;2022-11-03T03:24:14;99084.59;;;10.99;77.40
73624;BME280;61921;53.226;-1.296;2022-11-03T03:26:41;99073.96;;;10.97;77.39
73624;BME280;61921;53.226;-1.296;2022-11-03T03:29:06;99065.59;;;10.93;77.47
73624;BME280;61921;53.226;-1.296;2022-11-03T03:31:32;99056.35;;;10.88;77.65
73624;BME280;61921;53.226;-1.296;2022-11-03T03:33:54;99056.41;;;10.90;77.11
73624;BME280;61921;53.226;-1.296;2022-11-03T03:36:19;99046.09;;;10.85;77.32
73624;BME280;61921;53.226;-1.296;2022-11-03T03:38:47;99055.58;;;10.92;77.76
73624;BME280;61921;53.226;-1.296;2022-11-03T03:41:12;99052.95;;;10.95;77.38
73624;BME280;61921;53.226;-1.296;2022-11-03T03:43:34;99059.29;;;10.95;77.52
73624;BME280;61921;53.226;-1.296;2022-11-03T03:46:05;99061.16;;;10.92;77.06
73624;BME280;61921;53.226;-1.296;2022-11-03T03:48:24;99058.27;;;10.90;77.44
73624;BME280;61921;53.226;-1.296;2022-11-03T03:50:50;99058.05;;;10.89;77.20
73624;BME280;61921;53.226;-1.296;2022-11-03T03:53:17;99058.02;;;10.91;77.21
73624;BME280;61921;53.226;-1.296;2022-11-03T03:55:42;99059.50;;;11.03;77.26
73624;BME280;61921;53.226;-1.296;2022-11-03T03:58:07;99052.18;;;11.03;76.98
73624;BME280;61921;53.226;-1.296;2022-11-03T04:00:32;99057.93;;;10.91;77.06
73624;BME280;61921;53.226;-1.296;2022-11-03T04:02:58;99056.32;;;11.04;77.07
73624;BME280;61921;53.226;-1.296;2022-11-03T04:05:23;99061.23;;;10.98;76.59
73624;BME280;61921;53.226;-1.296;2022-11-03T04:07:47;99072.75;;;10.98;76.75
73624;BME280;61921;53.226;-1.296;2022-11-03T04:10:14;99062.86;;;10.98;77.04
73624;BME280;61921;53.226;-1.296;2022-11-03T04:12:40;99055.59;;;11.00;76.87
73624;BME280;61921;53.226;-1.296;2022-11-03T04:15:05;99068.93;;;11.06;76.83
73624;BME280;61921;53.226;-1.296;2022-11-03T04:17:29;99066.57;;;11.03;77.33
73624;BME280;61921;53.226;-1.296;2022-11-03T04:19:56;99059.68;;;10.96;77.17
73624;BME280;61921;53.226;-1.296;2022-11-03T04:22:22;99059.92;;;10.95;77.14
73624;BME280;61921;53.226;-1.296;2022-11-03T04:24:48;99065.22;;;11.02;77.10
73624;BME280;61921;53.226;-1.296;2022-11-03T04:29:37;99064.21;;;11.00;77.32
73624;BME280;61921;53.226;-1.296;2022-11-03T04:32:12;99048.73;;;10.97;77.68
73624;BME280;61921;53.226;-1.296;2022-11-03T04:34:27;99040.43;;;11.01;77.40
73624;BME280;61921;53.226;-1.296;2022-11-03T04:36:53;99043.90;;;11.05;77.56
73624;BME280;61921;53.226;-1.296;2022-11-03T04:39:19;99038.26;;;11.02;77.52
73624;BME280;61921;53.226;-1.296;2022-11-03T04:41:43;99035.80;;;11.06;77.96
73624;BME280;61921;53.226;-1.296;2022-11-03T04:44:13;99033.99;;;11.04;77.75
73624;BME280;61921;53.226;-1.296;2022-11-03T04:46:34;99037.47;;;11.06;77.97
73624;BME280;61921;53.226;-1.296;2022-11-03T04:49:00;99039.10;;;11.19;77.81
73624;BME280;61921;53.226;-1.296;2022-11-03T04:51:27;99041.24;;;11.32;77.34
73624;BME280;61921;53.226;-1.296;2022-11-03T04:53:53;99040.51;;;11.31;77.34
73624;BME280;61921;53.226;-1.296;2022-11-03T04:56:18;99043.83;;;11.41;77.45
73624;BME280;61921;53.226;-1.296;2022-11-03T04:58:40;99043.81;;;11.42;77.63
73624;BME280;61921;53.226;-1.296;2022-11-03T05:01:11;99043.71;;;11.51;77.41
73624;BME280;61921;53.226;-1.296;2022-11-03T05:03:33;99049.14;;;11.60;77.41
73624;BME280;61921;53.226;-1.296;2022-11-03T05:06:00;99051.98;;;11.54;77.45
73624;BME280;61921;53.226;-1.296;2022-11-03T05:08:23;99046.13;;;11.52;77.88
73624;BME280;61921;53.226;-1.296;2022-11-03T05:10:48;99040.24;;;11.53;77.96
73624;BME280;61921;53.226;-1.296;2022-11-03T05:13:18;99045.16;;;11.67;77.74
73624;BME280;61921;53.226;-1.296;2022-11-03T05:15:43;99039.54;;;11.48;78.93
73624;BME280;61921;53.226;-1.296;2022-11-03T05:18:13;99037.17;;;11.48;79.10
73624;BME280;61921;53.226;-1.296;2022-11-03T05:20:32;99032.95;;;11.61;78.82
73624;BME280;61921;53.226;-1.296;2022-11-03T05:22:59;99027.82;;;11.56;79.31
73624;BME280;61921;53.226;-1.296;2022-11-03T05:25:30;99027.01;;;11.51;79.69
73624;BME280;61921;53.226;-1.296;2022-11-03T05:27:45;99027.77;;;11.56;80.07
73624;BME280;61921;53.226;-1.296;2022-11-03T05:30:13;99022.39;;;11.42;81.03
73624;BME280;61921;53.226;-1.296;2022-11-03T05:32:35;99017.50;;;11.47;81.15
73624;BME280;61921;53.226;-1.296;2022-11-03T05:35:00;99015.79;;;11.53;81.18
73624;BME280;61921;53.226;-1.296;2022-11-03T05:37:27;99012.59;;;11.60;81.05
73624;BME280;61921;53.226;-1.296;2022-11-03T05:39:53;99007.42;;;11.48;82.00
73624;BME280;61921;53.226;-1.296;2022-11-03T05:42:24;99008.06;;;11.37;82.90
73624;BME280;61921;53.226;-1.296;2022-11-03T05:44:42;99000.34;;;11.45;82.82
73624;BME280;61921;53.226;-1.296;2022-11-03T05:47:12;98993.93;;;11.47;82.95
73624;BME280;61921;53.226;-1.296;2022-11-03T05:49:32;98990.09;;;11.44;83.28
73624;BME280;61921;53.226;-1.296;2022-11-03T05:51:59;98988.90;;;11.35;83.92
73624;BME280;61921;53.226;-1.296;2022-11-03T05:54:25;98987.62;;;11.44;83.66
73624;BME280;61921;53.226;-1.296;2022-11-03T05:56:49;98984.35;;;11.32;84.23
73624;BME280;61921;53.226;-1.296;2022-11-03T05:59:15;98987.36;;;11.29;84.67
73624;BME280;61921;53.226;-1.296;2022-11-03T06:01:39;98981.69;;;11.40;84.37
73624;BME280;61921;53.226;-1.296;2022-11-03T06:04:14;98974.82;;;11.43;84.22
73624;BME280;61921;53.226;-1.296;2022-11-03T06:06:35;98982.86;;;11.39;84.58
73624;BME280;61921;53.226;-1.296;2022-11-03T06:08:55;98986.22;;;11.32;84.72
73624;BME280;61921;53.226;-1.296;2022-11-03T06:11:25;98982.10;;;11.26;85.23
73624;BME280;61921;53.226;-1.296;2022-11-03T06:13:46;98974.70;;;11.22;85.54
73624;BME280;61921;53.226;-1.296;2022-11-03T06:16:21;98970.69;;;11.41;84.76
73624;BME280;61921;53.226;-1.296;2022-11-03T06:18:37;98968.19;;;11.55;84.02
73624;BME280;61921;53.226;-1.296;2022-11-03T06:21:06;98975.52;;;11.51;84.19
73624;BME280;61921;53.226;-1.296;2022-11-03T06:23:27;98974.63;;;11.54;84.03
73624;BME280;61921;53.226;-1.296;2022-11-03T06:25:54;98979.12;;;11.61;83.79
73624;BME280;61921;53.226;-1.296;2022-11-03T06:28:20;98982.96;;;11.68;83.33
73624;BME280;61921;53.226;-1.296;2022-11-03T06:30:44;98979.38;;;11.50;84.03
73624;BME280;61921;53.226;-1.296;2022-11-03T06:33:13;98973.57;;;11.57;83.85
73624;BME280;61921;53.226;-1.296;2022-11-03T06:35:34;98971.71;;;11.53;84.02
73624;BME280;61921;53.226;-1.296;2022-11-03T06:38:00;98974.31;;;11.54;84.04
73624;BME280;61921;53.226;-1.296;2022-11-03T06:40:33;98972.18;;;11.51;84.26
73624;BME280;61921;53.226;-1.296;2022-11-03T06:42:52;98970.02;;;11.49;84.41
73624;BME280;61921;53.226;-1.296;2022-11-03T06:45:19;98969.88;;;11.49;84.19
73624;BME280;61921;53.226;-1.296;2022-11-03T06:47:40;98976.93;;;11.51;84.39
73624;BME280;61921;53.226;-1.296;2022-11-03T06:52:34;98976.48;;;11.62;84.04
73624;BME280;61921;53.226;-1.296;2022-11-03T06:57:22;98974.02;;;11.59;84.30
73624;BME280;61921;53.226;-1.296;2022-11-03T06:59:48;98970.37;;;11.55;84.51
73624;BME280;61921;53.226;-1.296;2022-11-03T07:02:27;98971.60;;;11.47;84.91
73624;BME280;61921;53.226;-1.296;2022-11-03T07:04:38;98971.47;;;11.50;85.01
73624;BME280;61921;53.226;-1.296;2022-11-03T07:07:03;98968.65;;;11.43;85.31
73624;BME280;61921;53.226;-1.296;2022-11-03T07:09:28;98966.74;;;11.43;85.40
73624;BME280;61921;53.226;-1.296;2022-11-03T07:11:56;98969.27;;;11.44;85.38
73624;BME280;61921;53.226;-1.296;2022-11-03T07:14:21;98967.40;;;11.36;85.74
73624;BME280;61921;53.226;-1.296;2022-11-03T07:16:47;98965.98;;;11.30;86.11
73624;BME280;61921;53.226;-1.296;2022-11-03T07:19:13;98968.29;;;11.36;85.90
73624;BME280;61921;53.226;-1.296;2022-11-03T07:21:36;98970.76;;;11.38;85.82
73624;BME280;61921;53.226;-1.296;2022-11-03T07:24:02;98967.88;;;11.41;85.75
73624;BME280;61921;53.226;-1.296;2022-11-03T07:26:25;98971.74;;;11.41;85.84
73624;BME280;61921;53.226;-1.296;2022-11-03T07:28:51;98969.76;;;11.38;85.96
73624;BME280;61921;53.226;-1.296;2022-11-03T07:31:19;98968.57;;;11.36;86.14
73624;BME280;61921;53.226;-1.296;2022-11-03T07:33:41;98969.06;;;11.44;85.93
73624;BME280;61921;53.226;-1.296;2022-11-03T07:36:11;98975.86;;;11.46;85.80
73624;BME280;61921;53.226;-1.296;2022-11-03T07:38:32;98973.98;;;11.54;85.51
73624;BME280;61921;53.226;-1.296;2022-11-03T07:40:58;98975.28;;;11.68;84.89
73624;BME280;61921;53.226;-1.296;2022-11-03T07:43:24;98976.85;;;11.72;84.66
73624;BME280;61921;53.226;-1.296;2022-11-03T07:45:48;98974.39;;;11.81;84.33
73624;BME280;61921;53.226;-1.296;2022-11-03T07:48:19;98973.96;;;11.89;83.83
73624;BME280;61921;53.226;-1.296;2022-11-03T07:50:39;98970.48;;;11.90;83.72
73624;BME280;61921;53.226;-1.296;2022-11-03T07:53:10;98970.88;;;11.96;83.55
73624;BME280;61921;53.226;-1.296;2022-11-03T07:55:29;98972.14;;;11.91;83.53
73624;BME280;61921;53.226;-1.296;2022-11-03T07:57:54;98975.87;;;11.90;83.57
73624;BME280;61921;53.226;-1.296;2022-11-03T08:00:20;98975.16;;;11.95;83.44
73624;BME280;61921;53.226;-1.296;2022-11-03T08:02:48;98970.31;;;11.88;83.61
73624;BME280;61921;53.226;-1.296;2022-11-03T08:05:11;98973.06;;;11.87;83.71
73624;BME280;61921;53.226;-1.296;2022-11-03T08:07:36;98966.30;;;11.90;83.67
73624;BME280;61921;53.226;-1.296;2022-11-03T08:10:01;98966.07;;;11.94;83.40
73624;BME280;61921;53.226;-1.296;2022-11-03T08:12:26;98960.03;;;12.03;83.27
73624;BME280;61921;53.226;-1.296;2022-11-03T08:14:52;98960.10;;;12.04;83.32
73624;BME280;61921;53.226;-1.296;2022-11-03T08:17:18;98964.91;;;12.04;83.39
73624;BME280;61921;53.226;-1.296;2022-11-03T08:19:43;98967.92;;;12.20;82.66
73624;BME280;61921;53.226;-1.296;2022-11-03T08:22:07;98968.79;;;12.11;82.92
73624;BME280;61921;53.226;-1.296;2022-11-03T08:24:33;98965.30;;;12.14;82.83
73624;BME280;61921;53.226;-1.296;2022-11-03T08:26:58;98975.82;;;11.96;83.61
73624;BME280;61921;53.226;-1.296;2022-11-03T08:29:23;98975.19;;;12.12;83.25
73624;BME280;61921;53.226;-1.296;2022-11-03T08:31:48;98970.75;;;12.23;82.89
73624;BME280;61921;53.226;-1.296;2022-11-03T08:34:14;98970.11;;;12.33;82.39
73624;BME280;61921;53.226;-1.296;2022-11-03T08:36:39;98966.55;;;12.40;82.34
73624;BME280;61921;53.226;-1.296;2022-11-03T08:39:05;98968.57;;;12.41;82.25
73624;BME280;61921;53.226;-1.296;2022-11-03T08:41:30;98967.64;;;12.29;82.00
73624;BME280;61921;53.226;-1.296;2022-11-03T08:43:55;98961.94;;;12.23;82.53
73624;BME280;61921;53.226;-1.296;2022-11-03T08:46:21;98963.32;;;12.15;82.86
73624;BME280;61921;53.226;-1.296;2022-11-03T08:48:46;98966.59;;;12.23;82.74
73624;BME280;61921;53.226;-1.296;2022-11-03T08:51:13;98970.70;;;12.24;82.78
73624;BME280;61921;53.226;-1.296;2022-11-03T08:53:38;98969.65;;;12.28;82.40
73624;BME280;61921;53.226;-1.296;2022-11-03T08:56:03;98959.39;;;12.37;82.41
73624;BME280;61921;53.226;-1.296;2022-11-03T08:58:28;98954.72;;;12.22;82.51
73624;BME280;61921;53.226;-1.296;2022-11-03T09:00:54;98957.56;;;12.18;82.95
73624;BME280;61921;53.226;-1.296;2022-11-03T09:03:19;98953.56;;;12.23;82.94
73624;BME280;61921;53.226;-1.296;2022-11-03T09:05:44;98953.99;;;12.23;82.83
73624;BME280;61921;53.226;-1.296;2022-11-03T09:08:10;98946.01;;;12.28;82.24
73624;BME280;61921;53.226;-1.296;2022-11-03T09:10:35;98937.63;;;12.29;82.53
73624;BME280;61921;53.226;-1.296;2022-11-03T09:13:05;98928.80;;;12.21;82.40
73624;BME280;61921;53.226;-1.296;2022-11-03T09:15:26;98924.16;;;12.32;82.38
73624;BME280;61921;53.226;-1.296;2022-11-03T09:17:51;98916.93;;;12.36;81.83
73624;BME280;61921;53.226;-1.296;2022-11-03T09:20:17;98911.04;;;12.59;81.53
73624;BME280;61921;53.226;-1.296;2022-11-03T09:22:42;98909.81;;;12.63;81.09
73624;BME280;61921;53.226;-1.296;2022-11-03T09:25:08;98907.35;;;12.47;81.13
73624;BME280;61921;53.226;-1.296;2022-11-03T09:27:32;98903.94;;;12.59;81.03
73624;BME280;61921;53.226;-1.296;2022-11-03T09:29:58;98900.49;;;12.63;80.63
73624;BME280;61921;53.226;-1.296;2022-11-03T09:32:23;98894.13;;;12.78;80.50
73624;BME280;61921;53.226;-1.296;2022-11-03T09:34:48;98891.43;;;12.92;79.87
73624;BME280;61921;53.226;-1.296;2022-11-03T09:37:13;98896.08;;;12.82;79.59
73624;BME280;61921;53.226;-1.296;2022-11-03T09:39:38;98899.22;;;12.83;79.98
73624;BME280;61921;53.226;-1.296;2022-11-03T09:42:04;98898.56;;;12.76;80.05
73624;BME280;61921;53.226;-1.296;2022-11-03T09:44:31;98902.58;;;12.98;79.63
73624;BME280;61921;53.226;-1.296;2022-11-03T09:46:54;98903.46;;;12.99;79.52
73624;BME280;61921;53.226;-1.296;2022-11-03T09:49:20;98905.02;;;13.20;79.08
73624;BME280;61921;53.226;-1.296;2022-11-03T09:51:45;98909.48;;;13.25;78.68
73624;BME280;61921;53.226;-1.296;2022-11-03T09:54:12;98902.76;;;13.00;79.34
73624;BME280;61921;53.226;-1.296;2022-11-03T09:56:36;98905.92;;;13.06;78.73
73624;BME280;61921;53.226;-1.296;2022-11-03T09:59:05;98906.99;;;13.29;78.63
73624;BME280;61921;53.226;-1.296;2022-11-03T10:01:27;98912.25;;;13.40;79.08
73624;BME280;61921;53.226;-1.296;2022-11-03T10:03:56;98917.41;;;13.55;78.08
73624;BME280;61921;53.226;-1.296;2022-11-03T10:06:17;98916.31;;;13.58;77.57
73624;BME280;61921;53.226;-1.296;2022-11-03T10:08:44;98915.35;;;13.68;77.07
73624;BME280;61921;53.226;-1.296;2022-11-03T10:11:09;98912.46;;;13.73;76.54
73624;BME280;61921;53.226;-1.296;2022-11-03T10:13:37;98909.85;;;13.44;76.46
73624;BME280;61921;53.226;-1.296;2022-11-03T10:16:01;98906.54;;;13.86;75.90
73624;BME280;61921;53.226;-1.296;2022-11-03T10:18:26;98899.65;;;13.77;77.05
73624;BME280;61921;53.226;-1.296;2022-11-03T10:20:50;98903.44;;;13.78;75.27
73624;BME280;61921;53.226;-1.296;2022-11-03T10:23:15;98909.14;;;13.74;75.47
73624;BME280;61921;53.226;-1.296;2022-11-03T10:25:42;98912.30;;;13.72;74.66
73624;BME280;61921;53.226;-1.296;2022-11-03T10:28:15;98916.90;;;13.80;74.37
73624;BME280;61921;53.226;-1.296;2022-11-03T10:30:31;98917.76;;;13.85;73.70
73624;BME280;61921;53.226;-1.296;2022-11-03T10:32:58;98914.66;;;13.67;74.70
73624;BME280;61921;53.226;-1.296;2022-11-03T10:35:32;98916.30;;;13.75;74.60
73624;BME280;61921;53.226;-1.296;2022-11-03T10:37:48;98912.28;;;13.55;74.55
73624;BME280;61921;53.226;-1.296;2022-11-03T10:42:38;98901.43;;;13.52;75.49
73624;BME280;61921;53.226;-1.296;2022-11-03T10:45:11;98896.71;;;13.54;75.34
73624;BME280;61921;53.226;-1.296;2022-11-03T10:47:31;98896.15;;;13.63;75.13
73624;BME280;61921;53.226;-1.296;2022-11-03T10:49:55;98892.11;;;13.58;75.09
73624;BME280;61921;53.226;-1.296;2022-11-03T10:52:22;98887.33;;;13.73;75.61
73624;BME280;61921;53.226;-1.296;2022-11-03T10:54:46;98880.37;;;13.87;74.29
73624;BME280;61921;53.226;-1.296;2022-11-03T10:57:11;98879.73;;;13.85;74.57
73624;BME280;61921;53.226;-1.296;2022-11-03T10:59:37;98891.65;;;13.90;74.26
73624;BME280;61921;53.226;-1.296;2022-11-03T11:02:07;98895.93;;;13.94;72.97
73624;BME280;61921;53.226;-1.296;2022-11-03T11:04:28;98889.95;;;13.75;74.15
73624;BME280;61921;53.226;-1.296;2022-11-03T11:06:58;98890.87;;;13.63;74.69
73624;BME280;61921;53.226;-1.296;2022-11-03T11:09:21;98891.13;;;13.94;73.71
73624;BME280;61921;53.226;-1.296;2022-11-03T11:14:20;98888.79;;;13.96;72.96
73624;BME280;61921;53.226;-1.296;2022-11-03T11:16:47;98895.17;;;14.35;72.45
73624;BME280;61921;53.226;-1.296;2022-11-03T11:19:02;98895.10;;;14.14;70.84
73624;BME280;61921;53.226;-1.296;2022-11-03T11:23:52;98880.40;;;14.12;71.48
73624;BME280;61921;53.226;-1.296;2022-11-03T11:28:44;98864.31;;;14.40;70.68
73624;BME280;61921;53.226;-1.296;2022-11-03T11:33:34;98853.01;;;14.28;71.04
73624;BME280;61921;53.226;-1.296;2022-11-03T11:40:51;98866.66;;;14.18;71.43
73624;BME280;61921;53.226;-1.296;2022-11-03T11:43:25;98865.14;;;14.02;70.33
73624;BME280;61921;53.226;-1.296;2022-11-03T11:48:16;98863.23;;;13.91;70.12
73624;BME280;61921;53.226;-1.296;2022-11-03T11:50:33;98863.05;;;14.05;70.73
73624;BME280;61921;53.226;-1.296;2022-11-03T11:53:06;98864.43;;;14.21;69.46
73624;BME280;61921;53.226;-1.296;2022-11-03T11:55:29;98863.39;;;14.27;69.51
73624;BME280;61921;53.226;-1.296;2022-11-03T11:57:49;98855.80;;;14.12;69.16
73624;BME280;61921;53.226;-1.296;2022-11-03T12:00:19;98855.02;;;14.64;69.26
73624;BME280;61921;53.226;-1.296;2022-11-03T12:02:44;98853.19;;;14.86;68.44
73624;BME280;61921;53.226;-1.296;2022-11-03T12:05:16;98849.04;;;15.35;67.72
73624;BME280;61921;53.226;-1.296;2022-11-03T12:07:32;98850.93;;;15.10;66.43
73624;BME280;61921;53.226;-1.296;2022-11-03T12:14:48;98847.73;;;15.05;66.83
73624;BME280;61921;53.226;-1.296;2022-11-03T12:17:30;98847.79;;;15.12;65.42
73624;BME280;61921;53.226;-1.296;2022-11-03T12:19:39;98844.97;;;15.10;64.80
73624;BME280;61921;53.226;-1.296;2022-11-03T12:22:09;98845.69;;;15.27;64.87
73624;BME280;61921;53.226;-1.296;2022-11-03T12:24:37;98844.02;;;15.27;65.84
73624;BME280;61921;53.226;-1.296;2022-11-03T12:26:53;98839.75;;;15.38;65.90
73624;BME280;61921;53.226;-1.296;2022-11-03T12:29:19;98838.82;;;15.51;65.49
73624;BME280;61921;53.226;-1.296;2022-11-03T12:31:46;98837.47;;;15.83;64.29
73624;BME280;61921;53.226;-1.296;2022-11-03T12:34:09;98838.21;;;15.92;61.83
73624;BME280;61921;53.226;-1.296;2022-11-03T12:36:34;98835.55;;;16.00;62.34
73624;BME280;61921;53.226;-1.296;2022-11-03T12:39:00;98833.66;;;15.98;60.90
73624;BME280;61921;53.226;-1.296;2022-11-03T12:41:25;98836.71;;;15.16;64.34
73624;BME280;61921;53.226;-1.296;2022-11-03T12:43:52;98837.11;;;15.09;63.81
73624;BME280;61921;53.226;-1.296;2022-11-03T12:46:22;98835.58;;;15.19;64.95
73624;BME280;61921;53.226;-1.296;2022-11-03T12:48:41;98839.08;;;15.21;62.74
73624;BME280;61921;53.226;-1.296;2022-11-03T12:51:06;98837.61;;;14.93;64.03
73624;BME280;61921;53.226;-1.296;2022-11-03T12:53:32;98838.96;;;14.87;66.04
73624;BME280;61921;53.226;-1.296;2022-11-03T12:55:58;98836.69;;;14.96;63.34
73624;BME280;61921;53.226;-1.296;2022-11-03T12:58:23;98835.33;;;15.00;63.27
73624;BME280;61921;53.226;-1.296;2022-11-03T13:00:48;98832.55;;;15.13;62.14
73624;BME280;61921;53.226;-1.296;2022-11-03T13:03:13;98830.08;;;15.15;61.29
73624;BME280;61921;53.226;-1.296;2022-11-03T13:05:39;98830.88;;;15.06;62.45
73624;BME280;61921;53.226;-1.296;2022-11-03T13:08:04;98829.28;;;14.63;62.45
73624;BME280;61921;53.226;-1.296;2022-11-03T13:10:29;98822.64;;;15.16;61.80